Time;durP1;ratioP1;P1;durP2;ratioP2;P2;SDS_P1;SDS_P2;PMS_P1;PMS_P2;Temp;Humidity;BMP_temperature;BMP_pressure;BME280_temperature;BME280_humidity;BME280_pressure;Samples;Min_cycle;Max_cycle;Signal;HPM_P1;HPM_P2
2021/05/27 00:00:24;;;;;;;27.13;8.20;;;10.50;99.90;;;;;;5072200;28;20120;-77
2021/05/27 00:02:49;;;;;;;31.30;8.27;;;10.50;99.90;;;;;;5072449;28;20028;-77
2021/05/27 00:05:16;;;;;;;36.10;9.40;;;10.50;99.90;;;;;;5067580;28;20078;-77
2021/05/27 00:07:42;;;;;;;18.35;6.72;;;10.50;99.90;;;;;;5060420;28;20392;-77
2021/05/27 00:10:09;;;;;;;21.63;7.53;;;10.50;99.90;;;;;;5070401;28;20017;-78
2021/05/27 00:12:35;;;;;;;22.00;7.13;;;10.60;99.90;;;;;;5069262;28;20503;-77
2021/05/27 00:15:02;;;;;;;20.98;7.03;;;10.50;99.90;;;;;;5067241;28;20020;-77
2021/05/27 00:17:28;;;;;;;22.90;6.13;;;10.50;99.90;;;;;;5071467;28;20040;-77
2021/05/27 00:19:54;;;;;;;20.92;6.72;;;10.50;99.90;;;;;;5085711;28;20282;-78
2021/05/27 00:22:20;;;;;;;22.02;6.60;;;10.60;99.90;;;;;;5060041;28;20491;-77
2021/05/27 00:24:46;;;;;;;24.38;6.75;;;10.50;99.90;;;;;;5073590;28;20058;-77
2021/05/27 00:27:11;;;;;;;17.13;7.47;;;10.50;99.90;;;;;;5071254;28;20048;-77
2021/05/27 00:29:37;;;;;;;21.45;8.15;;;10.50;99.90;;;;;;5071776;28;20120;-77
2021/05/27 00:32:02;;;;;;;25.75;7.18;;;10.50;99.90;;;;;;5071919;28;20020;-78
2021/05/27 00:34:28;;;;;;;31.23;7.72;;;10.50;99.90;;;;;;5071157;28;20082;-78
2021/05/27 00:36:54;;;;;;;31.80;7.50;;;10.60;99.90;;;;;;5072952;28;20032;-78
2021/05/27 00:39:20;;;;;;;36.38;8.82;;;10.60;99.90;;;;;;5072447;28;20366;-78
2021/05/27 00:41:45;;;;;;;19.40;7.22;;;10.50;99.90;;;;;;5073191;28;20021;-77
2021/05/27 00:44:27;;;;;;;20.50;6.80;;;10.40;99.90;;;;;;5068310;28;20480;-76
2021/05/27 00:46:54;;;;;;;26.30;7.43;;;10.40;99.90;;;;;;5067261;28;20055;-77
2021/05/27 00:49:21;;;;;;;25.88;7.93;;;10.40;99.90;;;;;;5076142;28;20024;-76
2021/05/27 00:51:48;;;;;;;21.73;8.20;;;10.30;99.90;;;;;;5060534;28;20083;-76
2021/05/27 00:54:14;;;;;;;41.65;7.88;;;10.40;99.90;;;;;;5073650;28;20029;-76
2021/05/27 00:56:41;;;;;;;22.25;7.65;;;10.40;99.90;;;;;;5074759;28;20067;-76
2021/05/27 00:59:07;;;;;;;26.33;9.23;;;10.40;99.90;;;;;;5076074;28;20036;-77
2021/05/27 01:01:33;;;;;;;29.50;7.72;;;10.40;99.90;;;;;;5075414;28;20024;-75
2021/05/27 01:03:59;;;;;;;29.77;8.45;;;10.40;99.90;;;;;;5072371;28;20180;-76
2021/05/27 01:06:25;;;;;;;27.73;9.20;;;10.30;99.90;;;;;;5073366;28;20074;-77
2021/05/27 01:08:51;;;;;;;26.83;8.20;;;10.30;99.90;;;;;;5076592;28;20029;-77
2021/05/27 01:11:17;;;;;;;23.73;8.52;;;10.30;99.90;;;;;;5076467;28;20027;-77
2021/05/27 01:13:44;;;;;;;29.70;7.97;;;10.30;99.90;;;;;;5075706;28;20385;-76
2021/05/27 01:16:14;;;;;;;34.05;8.88;;;10.30;99.90;;;;;;5074912;28;20027;-77
2021/05/27 01:18:40;;;;;;;28.55;8.32;;;10.20;99.90;;;;;;5076541;28;20439;-76
2021/05/27 01:21:05;;;;;;;29.25;9.55;;;10.20;99.90;;;;;;5085123;28;20025;-77
2021/05/27 01:23:31;;;;;;;28.05;8.48;;;10.10;99.90;;;;;;5082119;28;20044;-76
2021/05/27 01:25:58;;;;;;;26.02;7.82;;;10.10;99.90;;;;;;5094317;28;20034;-77
2021/05/27 01:28:31;;;;;;;25.48;8.15;;;10.10;99.90;;;;;;5094657;28;20036;-77
2021/05/27 01:30:58;;;;;;;32.58;8.77;;;10.10;99.90;;;;;;5098278;28;20032;-77
2021/05/27 01:33:24;;;;;;;37.67;9.65;;;10.10;99.90;;;;;;5099326;28;20047;-76
2021/05/27 01:35:50;;;;;;;28.20;9.77;;;10.10;99.90;;;;;;5099216;28;20001;-77
2021/05/27 01:38:24;;;;;;;32.92;10.45;;;10.10;99.90;;;;;;5099082;28;20004;-77
2021/05/27 01:40:50;;;;;;;37.78;8.40;;;10.10;99.90;;;;;;5087850;28;20032;-77
2021/05/27 01:43:17;;;;;;;21.25;7.88;;;10.20;99.90;;;;;;5082900;28;20118;-76
2021/05/27 01:45:43;;;;;;;31.80;8.77;;;10.20;99.90;;;;;;5080870;28;20415;-76
2021/05/27 01:48:10;;;;;;;28.75;8.50;;;10.20;99.90;;;;;;5073929;28;20464;-76
2021/05/27 01:50:39;;;;;;;32.53;9.95;;;10.10;99.90;;;;;;5066517;28;20060;-77
2021/05/27 01:53:08;;;;;;;32.08;8.82;;;10.10;99.90;;;;;;5054841;28;20021;-77
2021/05/27 01:55:39;;;;;;;21.15;8.65;;;10.10;99.90;;;;;;5067516;28;20048;-77
2021/05/27 01:58:05;;;;;;;38.88;9.38;;;10.10;99.90;;;;;;5074758;28;20032;-77
2021/05/27 02:00:31;;;;;;;39.90;9.02;;;10.10;99.90;;;;;;5074803;28;20377;-77
2021/05/27 02:02:57;;;;;;;27.95;8.63;;;10.10;99.90;;;;;;5074190;28;20484;-77
2021/05/27 02:05:23;;;;;;;37.97;8.90;;;10.20;99.90;;;;;;5074745;28;20029;-77
2021/05/27 02:07:49;;;;;;;30.65;8.60;;;10.20;99.90;;;;;;5075221;28;20104;-77
2021/05/27 02:10:15;;;;;;;30.80;9.32;;;10.10;99.90;;;;;;5068001;28;20017;-77
2021/05/27 02:15:25;;;;;;;34.53;8.27;;;10.10;99.90;;;;;;5074478;28;20047;-76
2021/05/27 02:17:50;;;;;;;25.83;7.63;;;10.10;99.90;;;;;;5073473;28;20029;-77
2021/05/27 02:20:16;;;;;;;27.00;8.93;;;10.10;99.90;;;;;;5074191;28;20393;-77
2021/05/27 02:22:42;;;;;;;32.22;8.73;;;10.10;99.90;;;;;;5071732;28;20107;-76
2021/05/27 02:25:08;;;;;;;37.55;8.00;;;10.20;99.90;;;;;;5074864;28;20036;-77
2021/05/27 02:27:34;;;;;;;20.45;8.57;;;10.20;99.90;;;;;;5074535;28;20024;-74
2021/05/27 02:30:00;;;;;;;25.08;8.02;;;10.20;99.90;;;;;;5067522;28;20029;-74
2021/05/27 02:32:25;;;;;;;22.45;9.00;;;10.30;99.90;;;;;;5053636;28;20035;-75
2021/05/27 02:34:51;;;;;;;34.67;10.00;;;10.30;99.90;;;;;;5060402;28;20082;-76
2021/05/27 02:37:17;;;;;;;32.33;8.93;;;10.30;99.90;;;;;;5073772;28;20032;-76
2021/05/27 02:39:43;;;;;;;22.35;7.57;;;10.30;99.90;;;;;;5072885;28;20037;-76
2021/05/27 02:42:08;;;;;;;19.58;7.82;;;10.30;99.90;;;;;;5074831;28;20067;-76
2021/05/27 02:44:34;;;;;;;27.23;8.52;;;10.30;99.90;;;;;;5073649;28;20060;-76
2021/05/27 02:47:00;;;;;;;26.05;7.65;;;10.40;99.90;;;;;;5073664;28;20020;-76
2021/05/27 02:49:25;;;;;;;28.88;8.70;;;10.40;99.90;;;;;;5071474;28;20052;-75
2021/05/27 02:51:51;;;;;;;23.23;7.40;;;10.20;99.90;;;;;;5071280;28;20466;-76
2021/05/27 02:54:17;;;;;;;22.17;7.45;;;10.20;99.90;;;;;;5068280;28;20021;-76
2021/05/27 02:56:43;;;;;;;30.48;8.93;;;10.20;99.90;;;;;;5073362;28;20028;-77
2021/05/27 02:59:09;;;;;;;27.65;7.82;;;10.20;99.90;;;;;;5072414;28;20459;-77
2021/05/27 03:01:34;;;;;;;48.15;9.32;;;10.20;99.90;;;;;;5073238;28;20099;-77
2021/05/27 03:04:00;;;;;;;29.80;9.32;;;10.30;99.90;;;;;;5073395;28;20086;-77
2021/05/27 03:06:25;;;;;;;35.35;8.10;;;10.30;99.90;;;;;;5070568;28;20031;-76
2021/05/27 03:08:51;;;;;;;26.70;7.20;;;10.30;99.90;;;;;;5070902;28;20028;-76
2021/05/27 03:11:17;;;;;;;25.85;8.18;;;10.20;99.90;;;;;;5071776;28;20048;-77
2021/05/27 03:13:42;;;;;;;26.83;7.85;;;10.30;99.90;;;;;;5072824;28;20025;-78
2021/05/27 03:16:08;;;;;;;19.80;7.28;;;10.20;99.90;;;;;;5070964;28;20016;-77
2021/05/27 03:18:34;;;;;;;18.95;6.07;;;10.20;99.90;;;;;;5072788;28;20024;-78
2021/05/27 03:21:01;;;;;;;29.25;6.97;;;10.10;99.90;;;;;;5068807;28;20033;-77
2021/05/27 03:23:26;;;;;;;27.15;7.38;;;10.00;99.90;;;;;;5074100;28;20043;-78
2021/05/27 03:25:52;;;;;;;27.00;9.07;;;10.00;99.90;;;;;;5068084;28;20111;-78
2021/05/27 03:28:19;;;;;;;23.63;6.72;;;9.90;99.90;;;;;;5082126;28;20119;-78
2021/05/27 03:30:45;;;;;;;21.88;7.38;;;10.00;99.90;;;;;;5089687;28;20073;-78
2021/05/27 03:33:11;;;;;;;33.55;8.65;;;10.00;99.90;;;;;;5077858;28;20020;-78
2021/05/27 03:35:36;;;;;;;36.30;8.00;;;10.10;99.90;;;;;;5095190;28;20016;-76
2021/05/27 03:38:03;;;;;;;26.83;6.38;;;10.10;99.90;;;;;;5096267;28;20008;-77
2021/05/27 03:40:29;;;;;;;29.05;6.97;;;10.00;99.90;;;;;;5096239;28;20015;-77
2021/05/27 03:42:56;;;;;;;34.17;8.18;;;10.00;99.90;;;;;;5095513;28;20041;-77
2021/05/27 03:45:27;;;;;;;25.30;6.50;;;10.00;99.90;;;;;;5096725;28;20072;-77
2021/05/27 03:47:53;;;;;;;31.77;8.50;;;9.90;99.90;;;;;;5074948;28;20124;-77
2021/05/27 03:50:21;;;;;;;28.95;7.85;;;9.90;99.90;;;;;;5077012;28;20021;-78
2021/05/27 03:52:47;;;;;;;32.90;8.48;;;9.80;99.90;;;;;;5077681;28;20032;-78
2021/05/27 03:55:15;;;;;;;30.77;8.05;;;9.90;99.90;;;;;;5076121;28;20025;-77
2021/05/27 03:57:41;;;;;;;23.15;7.18;;;10.00;99.90;;;;;;5073204;28;20032;-77
2021/05/27 04:02:58;;;;;;;27.73;7.72;;;10.00;99.90;;;;;;5065329;28;20039;-78
2021/05/27 04:08:08;;;;;;;28.58;6.35;;;9.90;99.90;;;;;;5072620;28;20034;-78
2021/05/27 04:10:34;;;;;;;33.67;9.27;;;10.00;99.90;;;;;;5071975;28;20092;-79
2021/05/27 04:13:00;;;;;;;18.55;7.50;;;10.00;99.90;;;;;;5072227;28;20091;-78
2021/05/27 04:15:29;;;;;;;24.35;6.72;;;10.00;99.90;;;;;;5071427;28;20025;-79
2021/05/27 04:18:11;;;;;;;33.08;8.25;;;10.10;99.90;;;;;;5070895;28;20025;-76
2021/05/27 04:20:37;;;;;;;35.05;9.27;;;10.20;99.90;;;;;;5069463;28;20024;-76
2021/05/27 04:23:05;;;;;;;35.28;7.05;;;10.20;99.90;;;;;;5084143;28;20380;-78
2021/05/27 04:25:31;;;;;;;24.30;6.35;;;10.10;99.90;;;;;;5073186;28;20020;-79
2021/05/27 04:27:58;;;;;;;27.90;6.53;;;10.00;99.90;;;;;;5070777;28;20062;-78
2021/05/27 04:30:25;;;;;;;27.13;7.47;;;10.10;99.90;;;;;;5073048;28;20038;-78
2021/05/27 04:33:03;;;;;;;28.83;9.95;;;10.20;99.90;;;;;;5071387;28;20028;-78
2021/05/27 04:35:32;;;;;;;36.30;8.18;;;10.20;99.90;;;;;;5071440;28;20472;-79
2021/05/27 04:38:03;;;;;;;29.10;7.35;;;10.20;99.90;;;;;;5066656;28;20029;-78
2021/05/27 04:40:30;;;;;;;32.83;6.53;;;10.20;99.90;;;;;;5054491;28;20119;-78
2021/05/27 04:42:56;;;;;;;21.30;6.38;;;10.30;99.90;;;;;;5067571;28;20036;-78
2021/05/27 04:45:23;;;;;;;28.67;7.78;;;10.30;99.90;;;;;;5072997;28;20016;-78
2021/05/27 04:47:49;;;;;;;33.53;7.75;;;10.30;99.90;;;;;;5073817;28;20032;-78
2021/05/27 04:50:14;;;;;;;28.40;7.57;;;10.40;99.90;;;;;;5073213;28;20104;-79
2021/05/27 04:52:40;;;;;;;19.48;7.00;;;10.30;99.90;;;;;;5074777;28;20025;-79
2021/05/27 04:55:09;;;;;;;24.92;8.63;;;10.30;99.90;;;;;;5069917;28;20408;-79
2021/05/27 04:57:35;;;;;;;29.83;6.88;;;10.40;99.90;;;;;;5074524;28;20047;-80
2021/05/27 05:00:03;;;;;;;28.80;7.03;;;10.40;99.90;;;;;;5065649;28;20021;-79
2021/05/27 05:02:28;;;;;;;33.55;8.52;;;10.40;99.90;;;;;;5075416;28;20495;-79
2021/05/27 05:04:57;;;;;;;29.85;7.25;;;10.40;99.90;;;;;;5078215;28;20021;-79
2021/05/27 05:07:22;;;;;;;29.58;6.15;;;10.40;99.90;;;;;;5074425;28;20044;-79
2021/05/27 05:09:48;;;;;;;39.67;11.88;;;10.40;99.90;;;;;;5063200;28;20020;-79
2021/05/27 05:12:14;;;;;;;33.13;6.78;;;10.40;99.90;;;;;;5071801;28;20047;-79
2021/05/27 05:14:39;;;;;;;30.15;7.15;;;10.40;99.90;;;;;;5068314;28;20086;-79
2021/05/27 05:17:05;;;;;;;27.92;5.70;;;10.30;99.90;;;;;;5074438;28;20027;-79
2021/05/27 05:19:31;;;;;;;20.27;6.70;;;10.20;99.90;;;;;;5063486;28;20024;-79
2021/05/27 05:21:57;;;;;;;26.25;7.05;;;10.20;99.90;;;;;;5073678;28;20029;-79
2021/05/27 05:24:23;;;;;;;30.05;7.00;;;10.20;99.90;;;;;;5069810;28;20017;-78
2021/05/27 05:26:49;;;;;;;30.13;7.28;;;10.10;99.90;;;;;;5073256;28;20131;-78
2021/05/27 05:29:33;;;;;;;24.95;6.70;;;10.10;99.90;;;;;;5065348;28;20032;-79
2021/05/27 05:31:59;;;;;;;31.25;6.75;;;10.10;99.90;;;;;;5062241;28;20029;-80
2021/05/27 05:34:24;;;;;;;24.10;6.38;;;10.10;99.90;;;;;;5073395;28;20070;-80
2021/05/27 05:36:50;;;;;;;31.92;7.25;;;10.10;99.90;;;;;;5091566;28;20032;-80
2021/05/27 05:39:16;;;;;;;30.88;5.65;;;10.10;99.90;;;;;;5092020;28;20020;-80
2021/05/27 05:41:41;;;;;;;28.08;5.93;;;10.10;99.90;;;;;;5089095;28;20028;-78
2021/05/27 05:44:07;;;;;;;28.90;6.97;;;10.20;99.90;;;;;;5088112;28;20065;-78
2021/05/27 05:46:33;;;;;;;23.05;5.75;;;10.10;99.90;;;;;;5089495;28;20017;-78
2021/05/27 05:48:58;;;;;;;33.97;7.90;;;10.20;99.90;;;;;;5095604;28;20044;-77
2021/05/27 05:51:24;;;;;;;33.47;6.55;;;10.10;99.90;;;;;;5096864;28;20094;-78
2021/05/27 05:53:50;;;;;;;33.70;7.65;;;10.10;99.90;;;;;;5093472;28;20021;-78
2021/05/27 05:56:15;;;;;;;25.38;5.95;;;10.10;99.90;;;;;;5081568;28;20048;-78
2021/05/27 05:58:41;;;;;;;34.17;6.50;;;10.10;99.90;;;;;;5080701;28;20460;-78
2021/05/27 06:01:07;;;;;;;28.67;6.13;;;10.10;99.90;;;;;;5073162;28;20021;-78
2021/05/27 06:03:34;;;;;;;35.28;6.93;;;10.10;99.90;;;;;;5069397;28;20476;-79
2021/05/27 06:06:00;;;;;;;24.85;6.43;;;10.10;99.90;;;;;;5056746;28;20017;-79
2021/05/27 06:08:26;;;;;;;25.92;6.30;;;10.00;99.90;;;;;;5067293;28;20132;-80
2021/05/27 06:10:52;;;;;;;27.85;6.43;;;10.00;99.90;;;;;;5060827;28;20538;-79
2021/05/27 06:13:17;;;;;;;22.75;6.40;;;10.00;99.90;;;;;;5072960;28;20039;-78
2021/05/27 06:15:43;;;;;;;28.27;6.88;;;10.00;99.90;;;;;;5073947;28;20074;-78
2021/05/27 06:18:09;;;;;;;27.45;7.18;;;10.00;99.90;;;;;;5069948;28;20067;-78
2021/05/27 06:20:35;;;;;;;27.02;6.65;;;10.00;99.90;;;;;;5061154;28;20027;-78
2021/05/27 06:23:00;;;;;;;25.38;7.88;;;9.90;99.90;;;;;;5056838;28;20033;-78
2021/05/27 06:25:27;;;;;;;22.77;6.50;;;10.00;99.90;;;;;;5073036;28;20040;-78
2021/05/27 06:27:53;;;;;;;33.33;7.93;;;10.00;99.90;;;;;;5074502;28;20511;-79
2021/05/27 06:30:23;;;;;;;27.08;6.05;;;10.00;99.90;;;;;;5073310;28;20040;-79
2021/05/27 06:32:49;;;;;;;22.80;6.65;;;10.00;99.90;;;;;;5073177;28;20024;-78
2021/05/27 06:35:15;;;;;;;27.50;7.05;;;10.00;99.90;;;;;;5073271;28;20385;-79
2021/05/27 06:37:42;;;;;;;27.42;8.45;;;10.10;99.90;;;;;;5074426;28;20036;-79
2021/05/27 06:40:19;;;;;;;24.33;6.93;;;10.10;99.90;;;;;;5072323;28;20031;-80
2021/05/27 06:42:46;;;;;;;30.07;6.10;;;10.10;99.90;;;;;;5073655;28;20029;-78
2021/05/27 06:45:13;;;;;;;23.88;7.35;;;10.00;99.90;;;;;;5072507;28;20040;-79
2021/05/27 06:47:39;;;;;;;23.25;6.45;;;10.00;99.90;;;;;;5072917;28;20075;-79
2021/05/27 06:50:06;;;;;;;20.83;6.78;;;10.00;99.90;;;;;;5072743;28;20078;-78
2021/05/27 06:52:31;;;;;;;26.63;6.90;;;10.00;99.90;;;;;;5073624;28;20016;-78
2021/05/27 06:54:57;;;;;;;32.35;7.53;;;9.90;99.90;;;;;;5070786;28;20461;-78
2021/05/27 06:57:23;;;;;;;25.30;6.85;;;10.00;99.90;;;;;;5071100;28;20381;-78
2021/05/27 06:59:48;;;;;;;27.85;5.78;;;10.00;99.90;;;;;;5065943;28;20051;-78
2021/05/27 07:02:17;;;;;;;24.50;6.35;;;10.10;99.90;;;;;;5066045;28;20060;-78
2021/05/27 07:04:43;;;;;;;29.88;6.47;;;10.10;99.90;;;;;;5072591;28;20381;-78
2021/05/27 07:07:08;;;;;;;28.95;6.60;;;10.10;99.90;;;;;;5072323;28;20024;-79
2021/05/27 07:09:34;;;;;;;22.25;5.80;;;10.20;99.90;;;;;;5066470;28;20040;-78
2021/05/27 07:11:59;;;;;;;23.23;6.03;;;10.20;99.90;;;;;;5069636;28;20126;-78
2021/05/27 07:14:25;;;;;;;21.17;6.70;;;10.20;99.90;;;;;;5072091;28;20037;-78
2021/05/27 07:16:51;;;;;;;27.52;6.93;;;10.10;99.90;;;;;;5071451;28;20025;-79
2021/05/27 07:19:16;;;;;;;25.17;6.80;;;10.10;99.90;;;;;;5073223;28;20025;-79
2021/05/27 07:21:42;;;;;;;24.02;6.30;;;10.10;99.90;;;;;;5073570;28;20033;-78
2021/05/27 07:24:07;;;;;;;31.05;8.40;;;10.10;99.90;;;;;;5073081;28;20032;-78
2021/05/27 07:26:33;;;;;;;31.70;7.03;;;10.10;99.90;;;;;;5072487;28;20039;-78
2021/05/27 07:28:59;;;;;;;23.20;6.32;;;10.20;99.90;;;;;;5073296;28;20090;-78
2021/05/27 07:31:24;;;;;;;25.88;6.05;;;10.20;99.90;;;;;;5072361;28;20017;-78
2021/05/27 07:33:50;;;;;;;27.85;8.00;;;10.20;99.90;;;;;;5074154;28;20008;-79
2021/05/27 07:36:15;;;;;;;24.20;6.65;;;10.20;99.90;;;;;;5086510;28;20066;-80
2021/05/27 07:38:41;;;;;;;16.70;4.68;;;10.20;99.90;;;;;;5091456;28;20036;-79
2021/05/27 07:41:09;;;;;;;29.85;6.28;;;10.40;99.90;;;;;;5093045;28;20043;-77
2021/05/27 07:43:34;;;;;;;;;;;10.40;99.90;;;;;;5094203;28;20044;-76
2021/05/27 07:46:00;;;;;;;19.10;5.90;;;10.50;99.90;;;;;;5089405;28;19935;-76
2021/05/27 07:48:26;;;;;;;29.25;6.40;;;10.50;99.90;;;;;;5078422;28;20078;-77
2021/05/27 07:50:51;;;;;;;29.63;6.93;;;10.40;99.90;;;;;;5071633;28;20017;-81
2021/05/27 07:53:20;;;;;;;36.00;5.82;;;10.40;99.90;;;;;;5073773;28;20024;-80
2021/05/27 07:55:47;;;;;;;21.92;5.95;;;10.40;99.90;;;;;;5071821;28;20039;-81
2021/05/27 07:58:13;;;;;;;12.43;4.57;;;10.30;99.90;;;;;;5063000;28;20397;-84
2021/05/27 08:00:40;;;;;;;21.73;7.38;;;10.40;99.90;;;;;;5070461;28;20087;-82
2021/05/27 08:03:05;;;;;;;21.83;7.20;;;10.30;99.90;;;;;;5069088;28;20044;-83
2021/05/27 08:05:31;;;;;;;52.08;8.73;;;10.40;99.90;;;;;;5065822;28;20072;-83
2021/05/27 08:07:57;;;;;;;27.85;6.75;;;10.40;99.90;;;;;;5070904;28;20700;-79
2021/05/27 08:10:23;;;;;;;23.27;6.57;;;10.40;99.90;;;;;;5071697;28;20063;-79
2021/05/27 08:12:49;;;;;;;20.83;6.95;;;10.50;99.90;;;;;;5071809;28;20116;-79
2021/05/27 08:15:15;;;;;;;14.57;6.15;;;10.40;99.90;;;;;;5069313;28;20032;-79
2021/05/27 08:17:40;;;;;;;22.58;5.65;;;10.40;99.90;;;;;;5070623;28;20028;-79
2021/05/27 08:20:07;;;;;;;26.98;7.63;;;10.40;99.90;;;;;;5057998;28;20036;-78
2021/05/27 08:22:33;;;;;;;19.48;6.13;;;10.30;99.90;;;;;;5069758;28;20039;-78
2021/05/27 08:24:59;;;;;;;34.42;6.20;;;10.40;99.90;;;;;;5060070;28;20024;-78
2021/05/27 08:27:24;;;;;;;27.02;5.88;;;10.40;99.90;;;;;;5072075;28;20032;-78
2021/05/27 08:29:50;;;;;;;29.98;6.57;;;10.40;99.90;;;;;;5072011;28;20496;-78
2021/05/27 08:32:16;;;;;;;33.47;6.47;;;10.40;99.90;;;;;;5073424;28;20048;-78
2021/05/27 08:34:41;;;;;;;20.52;6.97;;;10.40;99.90;;;;;;5071569;28;20027;-77
2021/05/27 08:37:07;;;;;;;23.60;5.28;;;10.40;99.90;;;;;;5071589;28;20032;-79
2021/05/27 08:39:33;;;;;;;22.85;5.95;;;10.30;99.90;;;;;;5069008;28;20033;-80
2021/05/27 08:42:00;;;;;;;15.27;5.78;;;10.20;99.90;;;;;;5069749;28;20028;-82
2021/05/27 08:44:26;;;;;;;24.30;5.50;;;10.20;99.90;;;;;;5061901;28;20029;-80
2021/05/27 08:46:52;;;;;;;24.10;5.80;;;10.30;99.90;;;;;;5059072;28;20032;-80
2021/05/27 08:49:18;;;;;;;29.58;6.03;;;10.30;99.90;;;;;;5061043;28;20025;-81
2021/05/27 08:51:44;;;;;;;29.90;7.18;;;10.40;99.90;;;;;;5059806;28;20031;-80
2021/05/27 08:54:10;;;;;;;22.90;5.25;;;10.50;99.90;;;;;;5070583;28;20121;-81
2021/05/27 08:56:36;;;;;;;25.30;5.72;;;10.70;99.90;;;;;;5052191;28;20044;-80
2021/05/27 08:59:02;;;;;;;34.70;8.75;;;10.60;99.90;;;;;;5053800;28;20134;-80
2021/05/27 09:01:28;;;;;;;27.88;5.43;;;10.60;99.90;;;;;;5070590;28;20040;-81
2021/05/27 09:03:54;;;;;;;29.38;6.60;;;10.60;99.90;;;;;;5062491;28;20061;-81
2021/05/27 09:06:21;;;;;;;11.35;5.28;;;10.60;99.90;;;;;;5073121;28;20373;-81
2021/05/27 09:08:47;;;;;;;25.83;7.20;;;10.60;99.90;;;;;;5069827;28;20563;-82
2021/05/27 09:11:15;;;;;;;21.65;5.22;;;10.60;99.90;;;;;;5059590;28;20029;-82
2021/05/27 09:13:58;;;;;;;15.63;5.93;;;10.60;99.90;;;;;;5056926;28;20029;-81
2021/05/27 09:16:25;;;;;;;30.20;6.38;;;10.60;99.90;;;;;;5069265;28;20028;-81
2021/05/27 09:18:52;;;;;;;20.20;7.43;;;10.70;99.90;;;;;;5075031;28;20029;-81
2021/05/27 09:21:35;;;;;;;21.75;5.00;;;10.60;99.90;;;;;;5063623;28;20037;-80
2021/05/27 09:24:02;;;;;;;30.15;5.40;;;10.60;99.90;;;;;;5056499;28;20120;-80
2021/05/27 09:26:27;;;;;;;20.88;5.85;;;10.50;99.90;;;;;;5075649;28;20039;-81
2021/05/27 09:29:12;;;;;;;17.73;5.20;;;10.50;99.90;;;;;;5074909;28;20401;-81
2021/05/27 09:32:05;;;;;;;19.67;6.13;;;10.50;99.90;;;;;;5075215;28;20086;-80
2021/05/27 09:34:46;;;;;;;21.80;5.45;;;10.50;99.90;;;;;;5068386;28;20066;-80
2021/05/27 09:37:21;;;;;;;27.38;6.88;;;10.70;99.90;;;;;;5070909;28;20028;-82
2021/05/27 09:39:48;;;;;;;25.38;5.57;;;10.70;99.90;;;;;;5079873;28;20024;-81
2021/05/27 09:42:14;;;;;;;16.85;4.95;;;10.90;99.90;;;;;;5095733;28;20037;-79
2021/05/27 09:44:40;;;;;;;16.10;6.28;;;10.90;99.90;;;;;;5099140;28;20028;-80
2021/05/27 09:47:06;;;;;;;27.30;8.38;;;10.90;99.90;;;;;;5098737;28;20037;-80
2021/05/27 09:49:34;;;;;;;21.00;6.38;;;11.00;99.90;;;;;;5097641;28;20045;-79
2021/05/27 09:52:16;;;;;;;;;;;11.10;99.90;;;;;;5099045;28;20068;-80
2021/05/27 09:54:56;;;;;;;20.23;5.20;;;11.10;99.90;;;;;;5092304;28;19962;-78
2021/05/27 09:57:26;;;;;;;12.73;4.60;;;11.10;99.90;;;;;;5071199;28;20024;-78
2021/05/27 09:59:52;;;;;;;16.23;4.95;;;11.00;99.90;;;;;;5079331;28;20039;-79
2021/05/27 10:02:19;;;;;;;19.88;5.18;;;11.00;99.90;;;;;;5076197;28;20025;-80
2021/05/27 10:05:06;;;;;;;19.65;5.25;;;11.00;99.90;;;;;;5077922;28;20032;-77
2021/05/27 10:07:40;;;;;;;21.75;4.65;;;11.00;99.90;;;;;;5075355;28;20024;-79
2021/05/27 10:10:08;;;;;;;26.35;5.72;;;10.90;99.90;;;;;;5073413;28;20029;-79
2021/05/27 10:12:42;;;;;;;23.70;5.05;;;10.90;99.90;;;;;;5067467;28;20033;-78
2021/05/27 10:15:11;;;;;;;24.98;5.82;;;11.00;99.90;;;;;;5061691;28;20032;-77
2021/05/27 10:17:38;;;;;;;24.55;6.18;;;11.00;99.90;;;;;;5073907;28;20035;-78
2021/05/27 10:20:09;;;;;;;20.58;5.72;;;11.00;99.90;;;;;;5067322;28;20029;-79
2021/05/27 10:22:35;;;;;;;30.25;5.38;;;11.10;99.90;;;;;;5069872;28;20487;-78
2021/05/27 10:25:04;;;;;;;27.05;6.78;;;11.00;99.90;;;;;;5065231;28;20389;-77
2021/05/27 10:27:30;;;;;;;28.27;6.05;;;11.00;99.90;;;;;;5072335;28;20024;-79
2021/05/27 10:29:57;;;;;;;25.33;6.45;;;11.00;99.90;;;;;;5072967;28;20028;-78
2021/05/27 10:32:24;;;;;;;24.45;6.43;;;11.00;99.90;;;;;;5073859;28;20143;-78
2021/05/27 10:34:50;;;;;;;27.83;7.63;;;10.90;99.90;;;;;;5064813;28;20107;-78
2021/05/27 10:37:34;;;;;;;21.85;6.78;;;10.80;99.90;;;;;;5075127;28;20020;-78
2021/05/27 10:40:23;;;;;;;24.02;6.68;;;10.90;99.90;;;;;;5072574;28;20025;-77
2021/05/27 10:42:58;;;;;;;17.45;5.85;;;10.80;99.90;;;;;;5073486;28;20120;-78
2021/05/27 10:45:25;;;;;;;32.25;7.47;;;10.80;99.90;;;;;;5071578;28;20388;-79
2021/05/27 10:48:16;;;;;;;18.15;5.40;;;10.80;99.90;;;;;;5056704;28;20395;-79
2021/05/27 10:56:02;;;;;;;31.00;6.95;;;11.00;99.90;;;;;;5070584;28;20117;-78
2021/05/27 10:58:47;;;;;;;35.70;8.02;;;11.00;99.90;;;;;;5073494;28;20107;-78
2021/05/27 11:01:13;;;;;;;19.50;5.93;;;10.90;99.90;;;;;;5071336;28;20032;-78
2021/05/27 11:03:50;;;;;;;21.30;5.78;;;10.90;99.90;;;;;;5063352;28;20554;-79
2021/05/27 11:06:34;;;;;;;20.67;6.70;;;11.00;99.90;;;;;;5054116;28;20040;-78
2021/05/27 11:09:30;;;;;;;26.45;6.10;;;11.20;99.90;;;;;;5077098;28;20074;-76
2021/05/27 11:12:06;;;;;;;19.95;5.65;;;11.30;99.90;;;;;;5094210;28;20016;-77
2021/05/27 11:14:36;;;;;;;12.27;5.93;;;11.50;99.90;;;;;;5089817;28;20044;-75
2021/05/27 11:17:05;;;;;;;11.32;4.43;;;11.60;99.90;;;;;;5086222;28;20041;-75
2021/05/27 11:25:12;;;;;;;16.60;4.45;;;11.90;99.90;;;;;;5074886;28;20821;-76
2021/05/27 11:28:00;;;;;;;20.40;5.13;;;12.30;99.90;;;;;;5069614;28;20755;-77
2021/05/27 11:30:38;;;;;;;14.55;3.63;;;12.70;99.90;;;;;;5077232;28;20051;-76
2021/05/27 11:33:04;;;;;;;28.65;5.13;;;12.80;99.90;;;;;;5074056;28;20431;-78
2021/05/27 11:35:41;;;;;;;16.55;4.63;;;12.80;99.90;;;;;;5075321;28;20025;-76
2021/05/27 11:38:12;;;;;;;24.48;5.38;;;12.70;99.90;;;;;;5075201;28;20106;-77
2021/05/27 11:40:46;;;;;;;13.32;3.80;;;12.50;99.90;;;;;;5066653;28;20028;-76
2021/05/27 11:43:12;;;;;;;15.23;3.17;;;12.50;99.90;;;;;;5073032;28;20031;-77
2021/05/27 11:45:42;;;;;;;19.08;3.60;;;12.50;99.90;;;;;;5070298;28;20047;-77
2021/05/27 11:48:26;;;;;;;17.25;4.70;;;12.40;99.90;;;;;;5073296;28;20114;-75
2021/05/27 11:51:00;;;;;;;16.38;3.95;;;12.20;99.90;;;;;;5064051;28;20078;-78
2021/05/27 11:53:26;;;;;;;20.02;4.03;;;12.00;99.90;;;;;;5071501;28;20033;-75
2021/05/27 11:55:57;;;;;;;18.35;3.75;;;11.90;99.90;;;;;;5066839;28;20027;-75
2021/05/27 11:58:38;;;;;;;16.92;4.03;;;11.90;99.90;;;;;;5066954;28;20098;-75
2021/05/27 12:01:13;;;;;;;17.58;4.07;;;12.00;99.90;;;;;;5072179;28;20036;-75
2021/05/27 12:03:39;;;;;;;13.63;3.30;;;12.00;99.90;;;;;;5069606;28;20103;-76
2021/05/27 12:06:05;;;;;;;20.30;3.97;;;12.10;99.90;;;;;;5071128;28;20162;-75
2021/05/27 12:08:41;;;;;;;14.55;3.35;;;12.20;99.90;;;;;;5072046;28;20039;-76
2021/05/27 12:11:06;;;;;;;16.55;4.22;;;12.20;99.90;;;;;;5071305;28;20032;-75
2021/05/27 12:13:32;;;;;;;18.55;3.28;;;12.20;99.90;;;;;;5071905;28;20029;-77
2021/05/27 12:15:57;;;;;;;10.65;3.72;;;12.20;99.90;;;;;;5059687;28;20037;-75
2021/05/27 12:18:23;;;;;;;22.08;4.68;;;12.20;99.90;;;;;;5070447;28;20040;-75
2021/05/27 12:20:50;;;;;;;16.67;3.60;;;12.30;99.90;;;;;;5065610;28;20087;-76
2021/05/27 12:23:18;;;;;;;11.47;2.57;;;12.40;99.90;;;;;;5052952;28;20485;-76
2021/05/27 12:25:45;;;;;;;13.77;3.10;;;12.60;99.90;;;;;;5071762;28;20040;-76
2021/05/27 12:28:12;;;;;;;12.05;3.15;;;12.90;99.90;;;;;;5068186;28;20050;-76
2021/05/27 12:30:40;;;;;;;11.00;2.13;;;12.90;99.90;;;;;;5060668;28;20420;-75
2021/05/27 12:33:07;;;;;;;;;;;12.70;99.90;;;;;;5072422;28;20388;-76
2021/05/27 12:35:42;;;;;;;8.52;2.05;;;12.70;99.90;;;;;;5073209;28;19909;-76
2021/05/27 12:38:28;;;;;;;16.38;2.55;;;12.60;99.90;;;;;;5071810;28;20031;-76
2021/05/27 12:41:06;;;;;;;14.25;2.90;;;12.50;99.90;;;;;;5070316;28;20032;-76
2021/05/27 12:43:36;;;;;;;12.88;2.15;;;12.50;99.90;;;;;;5076966;28;20072;-76
2021/05/27 12:46:03;;;;;;;6.00;2.08;;;12.40;99.90;;;;;;5076315;28;20029;-76
2021/05/27 12:48:31;;;;;;;10.37;2.30;;;12.40;99.90;;;;;;5071825;28;20101;-76
2021/05/27 12:50:58;;;;;;;12.75;2.38;;;12.50;99.90;;;;;;5070068;28;20021;-76
2021/05/27 12:53:41;;;;;;;6.28;1.88;;;12.40;99.90;;;;;;5064223;28;20477;-77
2021/05/27 12:56:21;;;;;;;4.78;1.95;;;12.30;99.90;;;;;;5076809;28;20032;-77
2021/05/27 12:58:55;;;;;;;12.70;2.00;;;12.20;99.90;;;;;;5076582;28;20037;-76
2021/05/27 13:01:43;;;;;;;12.63;1.90;;;12.20;99.90;;;;;;5075574;28;20028;-76